WetterOnline ( https://www.wetteronline.de )

Wetter aktuell Cottbus

Aktuelles Wetter: Cottbus (70m)

6-stündlich | Neueste Meldungen
Ortszeit Temperatur Wetter
Do, 29.02. 19:00 7.2° C bedeckt
Do, 29.02. 13:00 8.3° C wolkenlos
Do, 29.02. 7:00 -3.1° C wolkenlos
Do, 29.02. 1:00 -3.0° C leicht bewölkt
Mi, 28.02. 19:00 -0.3° C wolkig
Mi, 28.02. 13:00 3.7° C bedeckt
Mi, 28.02. 7:00 4.1° C bedeckt
Mi, 28.02. 1:00 4.4° C bedeckt
Ortszeit Temperatur Wetter
Do, 29.02. 20:00 7.2° C bedeckt
Do, 29.02. 19:50 7.2° C bedeckt
Do, 29.02. 19:40 7.2° C bedeckt
Do, 29.02. 19:30 7.2° C bedeckt
Do, 29.02. 19:20 7.2° C bedeckt
Do, 29.02. 19:10 7.3° C bedeckt
Do, 29.02. 19:00 7.2° C bedeckt
Do, 29.02. 18:30 7.2° C bedeckt
Do, 29.02. 18:00 7.2° C bedeckt
Do, 29.02. 17:30 7.3° C bedeckt
Do, 29.02. 17:00 7.5° C bedeckt
Ortszeit Relative Feuchte Sichtweite
Do, 29.02. 19:00 84% 16 km
Do, 29.02. 13:00 71% 22 km
Do, 29.02. 7:00 98% 4.3 km
Do, 29.02. 1:00 96% 7 km
Mi, 28.02. 19:00 95% 13 km
Mi, 28.02. 13:00 90% 29 km
Mi, 28.02. 7:00 100% 2.7 km
Mi, 28.02. 1:00 99% 1.8 km
Ortszeit Relative Feuchte Sichtweite
Do, 29.02. 20:00 86% 15 km
Do, 29.02. 19:50 86% -
Do, 29.02. 19:40 85% -
Do, 29.02. 19:30 85% 16 km
Do, 29.02. 19:20 85% -
Do, 29.02. 19:10 84% -
Do, 29.02. 19:00 84% 16 km
Do, 29.02. 18:30 85% 18 km
Do, 29.02. 18:00 85% 19 km
Do, 29.02. 17:30 84% 22 km
Do, 29.02. 17:00 83% 20 km
Ortszeit Niederschlagsmenge Niederschlagsart
Do, 29.02. 19:00 0.0 l/m2 in 12 Std. -
Do, 29.02. 13:00 0.0 l/m2 in 6 Std. -
Do, 29.02. 7:00 0.0 l/m2 in 12 Std. -
Do, 29.02. 1:00 0.0 l/m2 in 6 Std. -
Mi, 28.02. 19:00 0.1 l/m2 in 12 Std. -
Mi, 28.02. 13:00 0.1 l/m2 in 6 Std. Sprühregen
Mi, 28.02. 7:00 0.1 l/m2 in 12 Std. -
Mi, 28.02. 1:00 0.1 l/m2 in 6 Std. -
Ortszeit Niederschlagsmenge Niederschlagsart
Do, 29.02. 20:00 0.0 l/m2 in 1 Std. -
Do, 29.02. 19:50 keine Meldung -
Do, 29.02. 19:40 keine Meldung -
Do, 29.02. 19:30 0.0 l/m2 in 30 Min -
Do, 29.02. 19:20 keine Meldung -
Do, 29.02. 19:10 keine Meldung -
Do, 29.02. 19:00 0.0 l/m2 in 1 Std. -
Do, 29.02. 18:30 0.0 l/m2 in 30 Min -
Do, 29.02. 18:00 0.0 l/m2 in 1 Std. -
Do, 29.02. 17:30 0.0 l/m2 in 30 Min -
Do, 29.02. 17:00 0.0 l/m2 in 1 Std. -
Ortszeit Stärke Spitze Richtung
km/h Bft. km/h Grad Sektor
Do, 29.02. 19:00 9 2 30 120° SO
Do, 29.02. 13:00 7 2 14 70° O
Do, 29.02. 7:00 6 1 9 100° O
Do, 29.02. 1:00 4 1 11 100° O
Mi, 28.02. 19:00 4 1 18 120° SO
Mi, 28.02. 13:00 11 2 25 270° W
Mi, 28.02. 7:00 7 2 18 310° NW
Mi, 28.02. 1:00 6 1 17 320° NW
Ortszeit Stärke Spitze Richtung
km/h Bft. km/h Grad Sektor
Do, 29.02. 20:00 11 2 18 120° SO
Do, 29.02. 19:50 11 2 - 120° SO
Do, 29.02. 19:40 9 2 - 120° SO
Do, 29.02. 19:30 9 2 17 110° O
Do, 29.02. 19:20 9 2 - 110° O
Do, 29.02. 19:10 9 2 - 110° O
Do, 29.02. 19:00 9 2 20 120° SO
Do, 29.02. 18:30 11 2 18 110° O
Do, 29.02. 18:00 11 2 22 110° O
Do, 29.02. 17:30 13 3 20 120° SO
Do, 29.02. 17:00 14 3 25 120° SO
Ortszeit Untergrenze Bedeckung Gattung
total tief tief mittel hoch
Do, 29.02. 19:00 690 m 8/8 8/8 - - -
Do, 29.02. 13:00 - 0/8 0/8 - - -
Do, 29.02. 7:00 - 0/8 0/8 - - -
Do, 29.02. 1:00 8100 m 4/8 0/8 - - -
Mi, 28.02. 19:00 8700 m 8/8 0/8 - - -
Mi, 28.02. 13:00 240 m 8/8 8/8 - - -
Mi, 28.02. 7:00 90 m 8/8 8/8 - - -
Mi, 28.02. 1:00 60 m 8/8 8/8 - - -
Ortszeit Bedeckungsgrad in Achtel und Wolkenuntergrenze
Do, 29.02. 20:00 8(660m)
Do, 29.02. 19:50 8(660m)
Do, 29.02. 19:40 8
Do, 29.02. 19:30 8(630m)
Do, 29.02. 19:20 8(630m)
Do, 29.02. 19:10 8
Do, 29.02. 19:00 8(690m)
Do, 29.02. 18:30 8(660m)
Do, 29.02. 18:00 8(690m)
Do, 29.02. 17:30 8(750m)
Do, 29.02. 17:00 1(420m) 8(780m)
Ortszeit Luftdruck NN (hPa) Tendenz (hPa in 3 Std.)
Do, 29.02. 19:00 1014 - 1,7
Do, 29.02. 13:00 1018 - 2,5
Do, 29.02. 7:00 1021 - 1,0
Do, 29.02. 1:00 1023 - 0,5
Mi, 28.02. 19:00 1024 + 0,5
Mi, 28.02. 13:00 1023 + 1,5
Mi, 28.02. 7:00 1020 + 1,5
Mi, 28.02. 1:00 1018 + 0,8
Ortszeit Luftdruck NN (hPa) Tendenz (hPa in 3 Std.)
Do, 29.02. 20:00 1013 - 1,9
Do, 29.02. 19:50 1013 keine Meldung
Do, 29.02. 19:40 1013 keine Meldung
Do, 29.02. 19:30 1013 - 1,8
Do, 29.02. 19:20 1013 keine Meldung
Do, 29.02. 19:10 1014 keine Meldung
Do, 29.02. 19:00 1014 - 1,7
Do, 29.02. 18:30 1014 - 1,6
Do, 29.02. 18:00 1014 - 1,8
Do, 29.02. 17:30 1015 - 1,8
Do, 29.02. 17:00 1015 - 1,8
Ortszeit Schneehöhe (cm)
Do, 29.02. 19:00 0
Do, 29.02. 13:00 0
Do, 29.02. 7:00 0
Do, 29.02. 1:00 0
Mi, 28.02. 19:00 0
Mi, 28.02. 13:00 0
Mi, 28.02. 7:00 0
Mi, 28.02. 1:00 0
Ortszeit Schneehöhe (cm)
Do, 29.02. 20:00 0
Do, 29.02. 19:50 0
Do, 29.02. 19:40 -
Do, 29.02. 19:30 0
Do, 29.02. 19:20 0
Do, 29.02. 19:10 -
Do, 29.02. 19:00 0
Do, 29.02. 18:30 0
Do, 29.02. 18:00 0
Do, 29.02. 17:30 0
Do, 29.02. 17:00 0
Link zu dieser Seite / Seite empfehlen

Das Wetter in ...